Luxeuil (70) - S

Date : 19/08/2026
Distance : 3,210 km
Valeur du circuit : 7143972 point × seconde

Place Nom Licence Catégorie Club Temps min/km CN à J-15 Valeur Points Différence Nouveau CN
1 BALEYDIER Clémence 42067 D14 4302AR 0:30:19 9'26 4239 7710741 3927 -312 4279
2 BONNIN Mélissa 36544 D16 3318NA 0:31:14 9'43 3851 7216774 3812 -39 3889
3 VIGUET POUPELLOZ Ysaline 40457 D16 7311AR 0:33:03 10'17 4371 8667693 3603 -768 4376
4 OIJID Sara 39993 D16 5402GE 0:33:35 10'27 3807 7671105 3545 -262 3708
5 PERRIN Garance 36727 D16 2508BF 0:34:14 10'39 4019 8255026 3478 -541 4001
6 SEGRE Zoé 37188 D16 5906HF 0:37:16 11'36 3252 7271472 3195 -57 3292
7 SOLBES-WILMET Agathe 36484 D16 1705NA 0:42:04 13'06 3029 7645196 2830 -199 3178
8 DE LENNE Léna 40401 D16 0615PZ 0:42:10 13'08 2355 5958150 2824 +469 2486
9 BAILLET Léna 32842 D16 6013HF 0:42:48 13'20 2283 5862744 2782 +499 2395
10 OLIVIER Maïa 35045 D16 5116GE 0:45:13 14'05 3464 9397832 2633 -831 3464
11 MANOPOULOS Mathilde 26517 D16 0504PZ 0:46:14 14'24 2583 7165242 2575 -8 2706
12 GACHIGNAT LOU 47782 D16 1705NA 0:46:14 14'24 1653 4585422 2575 +922 1736
13 PARISOT Morgane 40388 D16 0207HF 0:50:12 15'38 1999 6020988 2372 +373 1989
14 DOLLET Hannah 35282 D16 0615PZ 0:54:21 16'55 2020 6587220 2191 +171 2022
15 BOILEAU Romane 41729 D16 3323NA 0:55:09 17'10 1252 2159 +907 1349
16 BOUSSEMART DA NAZARE Bahia 38494 D16 5906HF 0:55:40 17'20 1750 2139 +389 1706
17 JULLIEN Luna 45277 D16 4203AR 0:59:26 18'30 1294 2003 +709 1345
18 ROUPIOZ Jocelyne 10321 D70 0705AR 1:01:00 19'00 3122 1952 -1170 2951
19 AUDUREAU GLADYS 48575 D16 1705NA 1:04:37 20'07 1308 1843 +535 1493
20 BARBIER Orlane 46463 D16 9105IF 1:08:33 21'21 1878 1737 -141 1795
21 SIGNOLES-FONTAINE Joséphine 46353 D45 6911AR 1:27:21 27'12 1127 1363 +236 1245